Time;durP1;ratioP1;P1;durP2;ratioP2;P2;SDS_P1;SDS_P2;PMS_P1;PMS_P2;Temp;Humidity;BMP_temperature;BMP_pressure;BME280_temperature;BME280_humidity;BME280_pressure;Samples;Min_cycle;Max_cycle;Signal;HPM_P1;HPM_P2
2023/12/03 00:01:58;;;;;;;1999.90;999.90;;;-3.80;99.80;;;;;;5064748;28;20394;-72
2023/12/03 00:04:24;;;;;;;1999.90;999.90;;;-3.80;99.90;;;;;;5066770;28;20086;-72
2023/12/03 00:06:49;;;;;;;1999.90;999.90;;;-3.80;99.90;;;;;;5068990;28;20024;-72
2023/12/03 00:09:16;;;;;;;1999.90;999.90;;;-3.80;99.90;;;;;;5070347;28;20037;-72
2023/12/03 00:11:42;;;;;;;1999.90;999.90;;;-3.70;99.90;;;;;;5067955;28;20135;-72
2023/12/03 00:14:07;;;;;;;1999.90;999.90;;;-3.60;99.90;;;;;;5076400;28;20115;-72
2023/12/03 00:16:33;;;;;;;1999.90;999.90;;;-3.60;99.90;;;;;;5069083;28;20032;-71
2023/12/03 00:18:58;;;;;;;1999.90;999.90;;;-3.50;99.90;;;;;;5067057;28;20115;-70
2023/12/03 00:21:24;;;;;;;1999.90;999.90;;;-3.50;99.90;;;;;;5066034;28;20501;-71
2023/12/03 00:23:50;;;;;;;1999.90;999.90;;;-3.50;99.70;;;;;;5064440;28;20106;-71
2023/12/03 00:26:15;;;;;;;1999.90;999.90;;;-3.60;99.70;;;;;;5067067;28;20032;-72
2023/12/03 00:28:41;;;;;;;1999.90;999.90;;;-3.60;99.90;;;;;;5065468;28;20203;-71
2023/12/03 00:31:07;;;;;;;1999.90;999.90;;;-3.80;99.70;;;;;;5068535;28;20113;-72
2023/12/03 00:33:32;;;;;;;1999.90;999.90;;;-3.80;99.70;;;;;;5064896;28;20488;-71
2023/12/03 00:35:59;;;;;;;1999.90;999.90;;;-3.80;99.90;;;;;;5068470;28;20486;-71
2023/12/03 00:38:25;;;;;;;1999.90;999.90;;;-3.80;99.90;;;;;;5068718;28;20024;-71
2023/12/03 00:40:51;;;;;;;1999.90;999.90;;;-3.80;99.90;;;;;;5068204;28;20040;-71
2023/12/03 00:43:16;;;;;;;1999.90;999.90;;;-3.70;99.80;;;;;;5068895;28;20037;-71
2023/12/03 00:45:42;;;;;;;1999.90;999.90;;;-3.80;99.80;;;;;;5073063;28;20028;-71
2023/12/03 00:48:08;;;;;;;1999.90;999.90;;;-3.70;99.90;;;;;;5071051;28;20502;-70
2023/12/03 00:50:33;;;;;;;1999.90;999.90;;;-3.80;99.90;;;;;;5068648;28;20728;-71
2023/12/03 00:52:59;;;;;;;1999.90;999.90;;;-3.70;99.90;;;;;;5071092;28;20035;-70
2023/12/03 00:55:25;;;;;;;1999.90;999.90;;;-3.80;99.80;;;;;;5070089;28;20028;-71
2023/12/03 00:57:50;;;;;;;1999.90;999.90;;;-3.80;99.70;;;;;;5072518;28;20032;-71
2023/12/03 01:00:17;;;;;;;1999.90;999.90;;;-3.70;99.50;;;;;;5067576;28;20124;-70
2023/12/03 01:02:42;;;;;;;1999.90;999.90;;;-3.70;99.50;;;;;;5066725;28;20386;-71
2023/12/03 01:05:08;;;;;;;1999.90;999.90;;;-3.70;99.70;;;;;;5071482;28;20031;-72
2023/12/03 01:07:34;;;;;;;1999.90;999.90;;;-3.70;99.70;;;;;;5075544;28;20040;-71
2023/12/03 01:10:00;;;;;;;1999.90;999.90;;;-3.70;99.70;;;;;;5066689;28;20482;-73
2023/12/03 01:12:26;;;;;;;1999.90;999.90;;;-3.60;99.80;;;;;;5068937;28;20490;-72
2023/12/03 01:14:52;;;;;;;1999.90;999.90;;;-3.60;99.60;;;;;;5068078;28;20039;-71
2023/12/03 01:17:17;;;;;;;1999.90;999.90;;;-3.80;99.60;;;;;;5067791;28;20646;-72
2023/12/03 01:19:43;;;;;;;1999.90;999.90;;;-3.80;99.70;;;;;;5067931;28;20042;-72
2023/12/03 01:22:08;;;;;;;1999.90;999.90;;;-3.90;99.50;;;;;;5068621;28;20799;-72
2023/12/03 01:24:34;;;;;;;1999.90;999.90;;;-3.90;99.50;;;;;;5067170;28;20016;-71
2023/12/03 01:27:00;;;;;;;1999.90;999.90;;;-3.80;99.60;;;;;;5066593;28;20028;-71
2023/12/03 01:29:26;;;;;;;1999.90;999.90;;;-3.70;99.70;;;;;;5068617;28;20036;-71
2023/12/03 01:31:51;;;;;;;1999.90;999.90;;;-3.90;99.40;;;;;;5068977;28;20031;-71
2023/12/03 01:34:17;;;;;;;1999.90;999.90;;;-3.90;99.50;;;;;;5067540;28;20067;-71
2023/12/03 01:36:42;;;;;;;1999.90;999.90;;;-3.90;99.60;;;;;;5068386;28;20491;-71
2023/12/03 01:39:08;;;;;;;1999.90;999.90;;;-3.80;99.00;;;;;;5061841;28;20090;-71
2023/12/03 01:41:34;;;;;;;1999.90;999.90;;;-3.90;99.30;;;;;;5071411;28;20036;-71
2023/12/03 01:44:00;;;;;;;1999.90;999.90;;;-3.90;99.40;;;;;;5067724;28;20082;-71
2023/12/03 01:46:27;;;;;;;1999.90;999.90;;;-3.90;99.50;;;;;;5067236;28;20033;-71
2023/12/03 01:48:53;;;;;;;1999.90;999.90;;;-3.90;99.60;;;;;;5070285;28;20123;-71
2023/12/03 01:51:19;;;;;;;1999.90;999.90;;;-3.90;99.60;;;;;;5066084;28;20123;-70
2023/12/03 01:53:46;;;;;;;1999.90;999.90;;;-3.90;99.60;;;;;;5068692;28;20043;-70
2023/12/03 01:56:12;;;;;;;1999.90;999.90;;;-3.90;99.60;;;;;;5072406;28;20039;-71
2023/12/03 01:58:39;;;;;;;1999.90;999.90;;;-3.90;99.60;;;;;;5071576;28;20066;-71
2023/12/03 02:01:06;;;;;;;1999.90;999.90;;;-4.00;99.60;;;;;;5067963;28;20037;-72
2023/12/03 02:03:31;;;;;;;1999.90;999.90;;;-3.90;99.60;;;;;;5066076;28;20063;-70
2023/12/03 02:06:10;;;;;;;1999.90;999.90;;;-3.90;99.30;;;;;;5070213;28;20033;-71
2023/12/03 02:08:36;;;;;;;1999.90;999.90;;;-3.80;99.60;;;;;;5070915;28;20671;-71
2023/12/03 02:11:04;;;;;;;1999.90;999.90;;;-3.80;99.60;;;;;;5066777;28;20104;-71
2023/12/03 02:13:32;;;;;;;1999.90;999.90;;;-3.80;99.70;;;;;;5072649;28;20025;-71
2023/12/03 02:15:58;;;;;;;1999.90;999.90;;;-3.70;99.60;;;;;;5066759;28;20040;-71
2023/12/03 02:18:25;;;;;;;1999.90;999.90;;;-3.60;99.70;;;;;;5067350;28;20036;-71
2023/12/03 02:20:50;;;;;;;1999.90;999.90;;;-3.70;99.70;;;;;;5067860;28;20643;-71
2023/12/03 02:23:16;;;;;;;1999.90;999.90;;;-3.90;99.40;;;;;;5067878;28;20035;-71
2023/12/03 02:25:42;;;;;;;1999.90;999.90;;;-3.80;99.60;;;;;;5064727;28;20095;-72
2023/12/03 02:28:08;;;;;;;1999.90;999.90;;;-3.80;99.70;;;;;;5068410;28;20024;-71
2023/12/03 02:30:34;;;;;;;1999.90;999.90;;;-3.70;99.60;;;;;;5069257;28;20090;-72
2023/12/03 02:33:02;;;;;;;1999.90;999.90;;;-3.70;99.60;;;;;;5066912;28;20037;-71
2023/12/03 02:35:28;;;;;;;1999.90;999.90;;;-3.80;99.50;;;;;;5070629;28;20497;-71
2023/12/03 02:37:54;;;;;;;1999.90;999.90;;;-3.70;99.60;;;;;;5068553;28;20024;-71
2023/12/03 02:40:19;;;;;;;1999.90;999.90;;;-3.80;99.70;;;;;;5071569;28;20534;-71
2023/12/03 02:42:45;;;;;;;1999.90;999.90;;;-3.80;99.70;;;;;;5065932;28;20037;-72
2023/12/03 02:45:11;;;;;;;1999.90;999.90;;;-3.80;99.70;;;;;;5076286;28;20032;-72
2023/12/03 02:47:37;;;;;;;1999.90;999.90;;;-3.80;99.70;;;;;;5066571;28;20036;-72
2023/12/03 02:50:04;;;;;;;1999.90;999.90;;;-3.80;99.60;;;;;;5068808;28;20036;-72
2023/12/03 02:52:30;;;;;;;1999.90;999.90;;;-3.80;99.60;;;;;;5068708;28;20045;-72
2023/12/03 02:54:55;;;;;;;1999.90;999.90;;;-4.00;99.30;;;;;;5069884;28;20563;-72
2023/12/03 02:57:21;;;;;;;1999.90;999.90;;;-4.10;99.00;;;;;;5070503;28;20032;-72
2023/12/03 02:59:47;;;;;;;1999.90;999.90;;;-4.20;98.40;;;;;;5069050;28;20033;-71
2023/12/03 03:02:12;;;;;;;1999.90;999.90;;;-4.30;98.30;;;;;;5068822;28;20028;-71
2023/12/03 03:04:38;;;;;;;1999.90;999.90;;;-4.40;97.90;;;;;;5069055;28;20029;-71
2023/12/03 03:07:21;;;;;;;1999.90;999.90;;;-4.60;98.40;;;;;;5064949;28;20044;-71
2023/12/03 03:09:46;;;;;;;1999.90;999.90;;;-4.80;98.50;;;;;;5069385;28;20036;-71
2023/12/03 03:12:12;;;;;;;1999.90;999.90;;;-4.90;98.50;;;;;;5070147;28;20082;-71
2023/12/03 03:14:38;;;;;;;1999.90;999.90;;;-5.00;98.60;;;;;;5101163;28;20509;-72
2023/12/03 03:17:03;;;;;;;1999.90;999.90;;;-5.10;98.50;;;;;;5070689;28;20028;-71
2023/12/03 03:19:29;;;;;;;1999.90;999.90;;;-5.10;98.50;;;;;;5066540;28;20036;-71
2023/12/03 03:21:54;;;;;;;1999.90;999.90;;;-5.20;98.50;;;;;;5066410;28;20097;-71
2023/12/03 03:24:20;;;;;;;1999.90;999.90;;;-5.30;98.80;;;;;;5069651;28;20048;-71
2023/12/03 03:26:46;;;;;;;1999.90;999.90;;;-5.40;98.50;;;;;;5068930;28;20028;-72
2023/12/03 03:29:11;;;;;;;1999.90;999.90;;;-5.50;98.40;;;;;;5070902;28;20517;-72
2023/12/03 03:31:37;;;;;;;1999.90;999.90;;;-5.50;98.50;;;;;;5076462;28;20546;-72
2023/12/03 03:34:03;;;;;;;1999.90;999.90;;;-5.50;98.40;;;;;;5073201;28;20041;-72
2023/12/03 03:36:31;;;;;;;1999.90;999.90;;;-5.70;98.10;;;;;;5068534;28;20427;-71
2023/12/03 03:38:57;;;;;;;1999.90;999.90;;;-5.70;98.20;;;;;;5072086;28;20032;-72
2023/12/03 03:41:22;;;;;;;1999.90;999.90;;;-5.60;98.20;;;;;;5072566;28;20033;-71
2023/12/03 03:43:48;;;;;;;1999.90;999.90;;;-5.60;98.20;;;;;;5072790;28;20033;-71
2023/12/03 03:46:14;;;;;;;1999.90;999.90;;;-5.70;98.20;;;;;;5072921;28;20024;-71
2023/12/03 03:48:39;;;;;;;1999.90;999.90;;;-5.80;98.20;;;;;;5072463;28;20043;-71
2023/12/03 03:51:06;;;;;;;1999.90;999.90;;;-5.80;98.30;;;;;;5075266;28;20052;-72
2023/12/03 03:53:32;;;;;;;1999.90;999.90;;;-5.90;98.20;;;;;;5072833;28;20055;-72
2023/12/03 03:55:57;;;;;;;1999.90;999.90;;;-5.90;98.20;;;;;;5071149;28;20471;-72
2023/12/03 03:58:23;;;;;;;1999.90;999.90;;;-5.90;98.20;;;;;;5072001;28;20086;-71
2023/12/03 04:00:51;;;;;;;1999.90;999.90;;;-5.90;98.20;;;;;;5068965;28;20040;-71
2023/12/03 04:03:16;;;;;;;1999.90;999.90;;;-6.00;98.20;;;;;;5072724;28;20032;-72
2023/12/03 04:05:42;;;;;;;1999.90;999.90;;;-6.00;98.20;;;;;;5066183;28;20079;-71
2023/12/03 04:08:08;;;;;;;1999.90;999.90;;;-6.10;98.20;;;;;;5070652;28;20040;-72
2023/12/03 04:10:34;;;;;;;1999.90;999.90;;;-6.30;98.10;;;;;;5067383;28;20166;-71
2023/12/03 04:12:59;;;;;;;1999.90;999.90;;;-6.40;98.30;;;;;;5100709;27;20474;-71
2023/12/03 04:15:25;;;;;;;1999.90;999.90;;;-6.30;98.10;;;;;;5070319;28;20032;-71
2023/12/03 04:17:50;;;;;;;1999.90;999.90;;;-6.20;98.10;;;;;;5069555;28;20024;-72
2023/12/03 04:20:16;;;;;;;1999.90;999.90;;;-6.30;98.00;;;;;;5070160;28;20033;-72
2023/12/03 04:22:42;;;;;;;1999.90;999.90;;;-6.60;97.80;;;;;;5068681;28;20036;-71
2023/12/03 04:25:08;;;;;;;1999.90;999.90;;;-6.60;97.80;;;;;;5067886;28;20133;-71
2023/12/03 04:27:33;;;;;;;1999.90;999.90;;;-6.60;97.80;;;;;;5068702;28;20202;-71
2023/12/03 04:29:59;;;;;;;1999.90;999.90;;;-6.60;97.80;;;;;;5068774;28;20039;-71
2023/12/03 04:32:25;;;;;;;1999.90;999.90;;;-6.50;98.00;;;;;;5065041;28;20025;-72
2023/12/03 04:34:50;;;;;;;1999.90;999.90;;;-6.40;98.00;;;;;;5065563;28;20075;-72
2023/12/03 04:37:16;;;;;;;1999.90;999.90;;;-6.40;98.00;;;;;;5068238;28;20054;-71
2023/12/03 04:39:45;;;;;;;1999.90;999.90;;;-6.50;98.00;;;;;;5069502;28;20043;-72
2023/12/03 04:42:11;;;;;;;1999.90;999.90;;;-6.50;98.00;;;;;;5070221;28;20037;-71
2023/12/03 04:44:36;;;;;;;1999.90;999.90;;;-6.60;97.90;;;;;;5069581;28;20032;-71
2023/12/03 04:47:02;;;;;;;1999.90;999.90;;;-6.60;97.90;;;;;;5071450;28;20112;-72
2023/12/03 04:49:28;;;;;;;1999.90;999.90;;;-6.70;97.80;;;;;;5074155;28;20115;-72
2023/12/03 04:51:53;;;;;;;1999.90;999.90;;;-6.60;97.90;;;;;;5066881;28;20053;-72
2023/12/03 04:54:19;;;;;;;1999.90;999.90;;;-6.60;97.90;;;;;;5066683;28;20123;-71
2023/12/03 04:56:45;;;;;;;1999.90;999.90;;;-6.60;97.90;;;;;;5068988;28;20809;-71
2023/12/03 04:59:10;;;;;;;1999.90;999.90;;;-6.60;97.90;;;;;;5065873;28;20048;-72
2023/12/03 05:01:36;;;;;;;1999.90;999.90;;;-6.50;97.90;;;;;;5067085;28;20036;-72
2023/12/03 05:04:02;;;;;;;1999.90;999.90;;;-6.60;97.80;;;;;;5065805;28;20407;-71
2023/12/03 05:06:27;;;;;;;1999.90;999.90;;;-6.70;97.70;;;;;;5070882;28;20032;-72
2023/12/03 05:08:53;;;;;;;1999.90;999.90;;;-6.70;97.80;;;;;;5071614;28;20027;-72
2023/12/03 05:11:19;;;;;;;1999.90;999.90;;;-6.70;97.80;;;;;;5065666;28;20025;-71
2023/12/03 05:13:44;;;;;;;1999.90;999.90;;;-6.70;97.80;;;;;;5066556;28;20173;-71
2023/12/03 05:16:10;;;;;;;1999.90;999.90;;;-6.80;97.70;;;;;;5067025;28;20066;-71
2023/12/03 05:18:36;;;;;;;1999.90;999.90;;;-6.80;97.70;;;;;;5067297;28;20051;-71
2023/12/03 05:21:03;;;;;;;1999.90;999.90;;;-6.70;97.80;;;;;;5065215;28;20495;-71
2023/12/03 05:23:29;;;;;;;1999.90;999.90;;;-6.70;97.70;;;;;;5063046;28;20037;-72
2023/12/03 05:25:56;;;;;;;1999.90;999.90;;;-6.70;97.70;;;;;;5068138;28;20495;-71
2023/12/03 05:28:23;;;;;;;1999.90;999.90;;;-6.60;97.40;;;;;;5068272;28;20032;-72
2023/12/03 05:30:52;;;;;;;1999.90;999.90;;;-6.70;97.60;;;;;;5096763;27;20069;-72
2023/12/03 05:33:17;;;;;;;1999.90;999.90;;;-6.80;97.60;;;;;;5069438;28;20044;-71
2023/12/03 05:35:43;;;;;;;1999.90;999.90;;;-6.80;97.60;;;;;;5069184;28;20028;-71
2023/12/03 05:38:09;;;;;;;1999.90;999.90;;;-6.80;97.70;;;;;;5066823;28;20124;-71
2023/12/03 05:40:34;;;;;;;1999.90;999.90;;;-6.80;97.70;;;;;;5063822;28;20032;-72
2023/12/03 05:43:02;;;;;;;1999.90;999.90;;;-6.90;97.60;;;;;;5070163;28;20032;-71
2023/12/03 05:45:28;;;;;;;1999.90;999.90;;;-7.00;97.50;;;;;;5063584;28;20028;-71
2023/12/03 05:47:54;;;;;;;1999.90;999.90;;;-7.20;97.40;;;;;;5064698;28;20054;-72
2023/12/03 05:50:19;;;;;;;1999.90;999.90;;;-7.30;97.30;;;;;;5065296;28;20526;-71
2023/12/03 05:52:45;;;;;;;1999.90;999.90;;;-7.60;97.10;;;;;;5069389;28;20048;-71
2023/12/03 05:55:11;;;;;;;1999.90;999.90;;;-7.70;97.00;;;;;;5070573;28;20148;-72
2023/12/03 05:57:36;;;;;;;1999.90;999.90;;;-7.90;97.00;;;;;;5067107;28;20075;-71
2023/12/03 06:00:03;;;;;;;1999.90;999.90;;;-8.00;97.00;;;;;;5063965;28;20122;-71
2023/12/03 06:02:28;;;;;;;1999.90;999.90;;;-7.80;97.00;;;;;;5068226;28;20036;-72
2023/12/03 06:04:54;;;;;;;1999.90;999.90;;;-7.80;97.00;;;;;;5061489;28;20044;-71
2023/12/03 06:07:20;;;;;;;1999.90;999.90;;;-7.80;97.00;;;;;;5064657;28;20028;-72
2023/12/03 06:09:45;;;;;;;1999.90;999.90;;;-7.80;97.00;;;;;;5066292;28;20047;-72
2023/12/03 06:12:11;;;;;;;1999.90;999.90;;;-7.80;97.10;;;;;;5064595;28;20027;-71
2023/12/03 06:14:36;;;;;;;1999.90;999.90;;;-7.70;97.00;;;;;;5059747;28;20036;-73
2023/12/03 06:17:02;;;;;;;1999.90;999.90;;;-7.70;97.10;;;;;;5064266;28;21692;-71
2023/12/03 06:19:28;;;;;;;1999.90;999.90;;;-7.70;97.10;;;;;;5060848;28;20982;-72
2023/12/03 06:21:54;;;;;;;1999.90;999.90;;;-7.60;97.20;;;;;;5061381;28;20032;-72
2023/12/03 06:24:20;;;;;;;1999.90;999.90;;;-7.60;97.20;;;;;;5065320;28;20082;-72
2023/12/03 06:26:45;;;;;;;1999.90;999.90;;;-7.60;97.20;;;;;;5062789;28;20052;-74
2023/12/03 06:29:11;;;;;;;1999.90;999.90;;;-7.50;97.30;;;;;;5068594;28;20496;-73
2023/12/03 06:31:37;;;;;;;1999.90;999.90;;;-7.60;97.30;;;;;;5066065;28;20545;-74
2023/12/03 06:34:03;;;;;;;1999.90;999.90;;;-7.60;97.20;;;;;;5067340;28;20029;-74
2023/12/03 06:36:28;;;;;;;1999.90;999.90;;;-7.50;97.30;;;;;;5064425;28;20494;-73
2023/12/03 06:38:54;;;;;;;1999.90;999.90;;;-7.50;97.40;;;;;;5068470;28;20405;-73
2023/12/03 06:41:19;;;;;;;1999.90;999.90;;;-7.60;97.30;;;;;;5069073;28;20028;-73
2023/12/03 06:43:45;;;;;;;1999.90;999.90;;;-7.60;97.30;;;;;;5068272;28;20068;-74
2023/12/03 06:46:11;;;;;;;1999.90;999.90;;;-7.70;97.20;;;;;;5050214;28;20025;-74
2023/12/03 06:48:41;;;;;;;1999.90;999.90;;;-7.70;97.20;;;;;;5068511;28;20044;-76
2023/12/03 06:51:09;;;;;;;1999.90;999.90;;;-7.60;97.20;;;;;;5067860;28;20139;-74
2023/12/03 06:53:35;;;;;;;1999.90;999.90;;;-7.60;97.20;;;;;;5065617;28;20036;-73
2023/12/03 06:56:00;;;;;;;1999.90;999.90;;;-7.60;97.20;;;;;;5063656;28;20045;-73
2023/12/03 06:58:26;;;;;;;1999.90;999.90;;;-7.60;97.00;;;;;;5068904;28;20079;-73
2023/12/03 07:00:52;;;;;;;1999.90;999.90;;;-7.60;97.20;;;;;;5063284;28;20033;-72
2023/12/03 07:03:17;;;;;;;1999.90;999.90;;;-7.50;97.20;;;;;;5050095;28;20109;-78
2023/12/03 07:05:43;;;;;;;1999.90;999.90;;;-7.50;97.10;;;;;;5053850;28;20139;-74
2023/12/03 07:08:09;;;;;;;1999.90;999.90;;;-7.60;97.10;;;;;;5066769;28;20025;-72
2023/12/03 07:10:34;;;;;;;1999.90;999.90;;;-7.60;97.10;;;;;;5061508;28;20021;-72
2023/12/03 07:13:00;;;;;;;1999.90;999.90;;;-7.70;97.10;;;;;;5063759;28;20511;-72
2023/12/03 07:15:25;;;;;;;1999.90;999.90;;;-7.60;97.20;;;;;;5068200;28;20510;-72
2023/12/03 07:17:51;;;;;;;1999.90;999.90;;;-7.50;97.20;;;;;;5064927;28;20167;-72
2023/12/03 07:20:18;;;;;;;1999.90;999.90;;;-7.50;97.30;;;;;;5071479;28;20115;-72
2023/12/03 07:22:44;;;;;;;1999.90;999.90;;;-7.40;97.30;;;;;;5065862;28;20060;-72
2023/12/03 07:25:09;;;;;;;1999.90;999.90;;;-7.40;97.30;;;;;;5070443;28;20152;-72
2023/12/03 07:27:35;;;;;;;1999.90;999.90;;;-7.40;97.20;;;;;;5099904;27;20024;-72
2023/12/03 07:30:01;;;;;;;1999.90;999.90;;;-7.50;97.20;;;;;;5068881;28;20029;-72
2023/12/03 07:32:27;;;;;;;1999.90;999.90;;;-7.40;97.30;;;;;;5068888;28;20447;-72
2023/12/03 07:34:52;;;;;;;1999.90;999.90;;;-7.40;97.30;;;;;;5067909;28;20445;-72
2023/12/03 07:37:18;;;;;;;1999.90;999.90;;;-7.30;97.30;;;;;;5071809;28;20039;-72
2023/12/03 07:39:44;;;;;;;1999.90;999.90;;;-7.40;97.20;;;;;;5069825;28;20604;-71
2023/12/03 07:42:10;;;;;;;1999.90;999.90;;;-7.40;97.20;;;;;;5069395;28;20047;-72
2023/12/03 07:44:36;;;;;;;1999.90;999.90;;;-7.50;97.00;;;;;;5071579;28;20037;-72
2023/12/03 07:47:02;;;;;;;1999.90;999.90;;;-7.70;97.10;;;;;;5054706;28;20035;-72
2023/12/03 07:49:28;;;;;;;1999.90;999.90;;;-7.70;97.10;;;;;;5070951;28;20485;-71
2023/12/03 07:51:53;;;;;;;1999.90;999.90;;;-7.60;97.10;;;;;;5072620;28;20064;-72
2023/12/03 07:54:19;;;;;;;1999.90;999.90;;;-7.50;97.30;;;;;;5069468;28;20410;-72
2023/12/03 07:56:45;;;;;;;1999.90;999.90;;;-7.40;97.30;;;;;;5072313;28;20032;-72
2023/12/03 07:59:11;;;;;;;1999.90;999.90;;;-7.30;97.40;;;;;;5068542;28;20033;-72
2023/12/03 08:01:37;;;;;;;1999.90;999.90;;;-7.20;97.40;;;;;;5070983;28;20482;-72
2023/12/03 08:04:06;;;;;;;1999.90;999.90;;;-7.00;97.60;;;;;;5071470;28;20089;-72
2023/12/03 08:06:32;;;;;;;1999.90;999.90;;;-6.80;97.60;;;;;;5069454;28;20030;-72
2023/12/03 08:08:58;;;;;;;1999.90;999.90;;;-6.80;97.60;;;;;;5073719;28;20029;-72
2023/12/03 08:11:24;;;;;;;1999.90;999.90;;;-6.60;97.70;;;;;;5070976;28;20039;-72
2023/12/03 08:13:50;;;;;;;1999.90;999.90;;;-6.70;97.70;;;;;;5072340;28;20028;-71
2023/12/03 08:16:16;;;;;;;1999.90;999.90;;;-6.70;97.80;;;;;;5065386;28;20083;-72
2023/12/03 08:18:42;;;;;;;1999.90;999.90;;;-6.60;97.90;;;;;;5072658;28;20081;-72
2023/12/03 08:21:09;;;;;;;1999.90;999.90;;;-6.60;97.90;;;;;;5071414;28;20391;-72
2023/12/03 08:23:35;;;;;;;1999.90;999.90;;;-6.50;97.90;;;;;;5072767;28;20082;-72
2023/12/03 08:26:03;;;;;;;1999.90;999.90;;;-6.40;98.00;;;;;;5070375;28;20028;-73
2023/12/03 08:28:29;;;;;;;1999.90;999.90;;;-6.40;98.00;;;;;;5068830;28;20028;-72
2023/12/03 08:30:54;;;;;;;1999.90;999.90;;;-6.20;98.10;;;;;;5070776;28;20036;-72
2023/12/03 08:33:20;;;;;;;1999.90;999.90;;;-6.20;98.10;;;;;;5070901;28;20420;-72
2023/12/03 08:35:46;;;;;;;1999.90;999.90;;;-6.10;98.20;;;;;;5071492;28;20037;-73
2023/12/03 08:38:12;;;;;;;1999.90;999.90;;;-6.00;98.30;;;;;;5071799;28;20506;-73
2023/12/03 08:40:38;;;;;;;1999.90;999.90;;;-5.90;98.30;;;;;;5069842;28;20054;-72
2023/12/03 08:43:04;;;;;;;1999.90;999.90;;;-5.80;98.40;;;;;;5070695;28;20120;-72
2023/12/03 08:45:29;;;;;;;1999.90;999.90;;;-5.60;98.50;;;;;;5068495;28;20086;-72
2023/12/03 08:47:56;;;;;;;1999.90;999.90;;;-5.50;98.60;;;;;;5071353;28;20034;-72
2023/12/03 08:50:27;;;;;;;1999.90;999.90;;;-5.50;98.60;;;;;;5070705;28;20215;-73
2023/12/03 08:52:53;;;;;;;1999.90;999.90;;;-5.40;98.60;;;;;;5070447;28;20127;-73
2023/12/03 08:55:19;;;;;;;1999.90;999.90;;;-5.20;99.10;;;;;;5056334;28;20512;-73
2023/12/03 08:57:44;;;;;;;1999.90;999.90;;;-5.30;98.70;;;;;;5072868;28;20024;-72
2023/12/03 09:00:12;;;;;;;1999.90;999.90;;;-5.30;98.70;;;;;;5069624;28;20060;-72
2023/12/03 09:02:39;;;;;;;1999.90;999.90;;;-5.50;98.60;;;;;;5069334;28;20028;-72
2023/12/03 09:05:06;;;;;;;1999.90;999.90;;;-5.50;98.40;;;;;;5069845;28;20047;-72
2023/12/03 09:07:31;;;;;;;1999.90;999.90;;;-5.50;98.50;;;;;;5073617;28;20058;-72
2023/12/03 09:09:58;;;;;;;1999.90;999.90;;;-5.40;98.60;;;;;;5071177;28;20032;-72
2023/12/03 09:12:24;;;;;;;1999.90;999.90;;;-5.40;98.50;;;;;;5051218;28;20029;-73
2023/12/03 09:14:50;;;;;;;1999.90;999.90;;;-5.10;98.30;;;;;;5071213;28;20127;-72
2023/12/03 09:17:15;;;;;;;1999.90;999.90;;;-4.90;98.80;;;;;;5070385;28;20117;-73
2023/12/03 09:19:41;;;;;;;1999.90;999.90;;;-4.90;98.90;;;;;;5067476;28;20082;-73
2023/12/03 09:22:07;;;;;;;1999.90;999.90;;;-4.80;98.80;;;;;;5067990;28;20090;-72
2023/12/03 09:24:32;;;;;;;1999.90;999.90;;;-4.70;98.70;;;;;;5064783;28;20032;-72
2023/12/03 09:26:59;;;;;;;1999.90;999.90;;;-4.60;99.00;;;;;;5062077;28;20107;-71
2023/12/03 09:29:25;;;;;;;1999.90;999.90;;;-4.50;99.10;;;;;;5066415;28;20035;-72
2023/12/03 09:31:50;;;;;;;1999.90;999.90;;;-4.30;99.20;;;;;;5068999;28;20394;-72
2023/12/03 09:34:16;;;;;;;1999.90;999.90;;;-4.10;99.40;;;;;;5064354;28;20079;-72
2023/12/03 09:36:42;;;;;;;1999.90;999.90;;;-4.00;99.60;;;;;;5068139;28;20039;-72
2023/12/03 09:39:08;;;;;;;1999.90;999.90;;;-3.90;99.50;;;;;;5067862;28;20118;-72
2023/12/03 09:41:41;;;;;;;1999.90;999.90;;;-3.80;99.60;;;;;;5066969;28;20093;-71
2023/12/03 09:44:23;;;;;;;1999.90;999.90;;;-3.60;99.80;;;;;;5068787;28;20048;-72
2023/12/03 09:46:52;;;;;;;1999.90;999.90;;;-3.40;99.90;;;;;;5068573;28;20029;-72
2023/12/03 09:49:21;;;;;;;1999.90;999.90;;;-3.30;99.90;;;;;;5066094;28;20025;-72
2023/12/03 09:51:47;;;;;;;1999.90;999.90;;;-3.10;99.90;;;;;;5071033;28;20389;-72
2023/12/03 09:54:13;;;;;;;1999.90;999.90;;;-3.10;99.80;;;;;;5066303;28;20166;-72
2023/12/03 09:56:40;;;;;;;1999.90;999.90;;;-3.10;99.90;;;;;;5072676;28;20123;-72
2023/12/03 09:59:10;;;;;;;1999.90;999.90;;;-3.20;99.80;;;;;;5065632;28;20486;-72
2023/12/03 10:01:40;;;;;;;1999.90;999.90;;;-3.30;99.50;;;;;;5068090;28;20035;-72
2023/12/03 10:04:06;;;;;;;1999.90;999.90;;;-3.30;99.70;;;;;;5067567;28;20363;-71
2023/12/03 10:06:36;;;;;;;1999.90;999.90;;;-3.30;99.60;;;;;;5066422;28;20071;-72
2023/12/03 10:09:06;;;;;;;1999.90;999.90;;;-3.20;99.90;;;;;;5069908;28;20035;-73
2023/12/03 10:11:37;;;;;;;;;;;-3.00;99.90;;;;;;5063329;28;20092;-72
2023/12/03 10:14:05;;;;;;;1999.90;999.90;;;-3.30;99.70;;;;;;5069191;28;19912;-72
2023/12/03 10:16:31;;;;;;;1999.90;999.90;;;-3.50;99.60;;;;;;5070605;28;20024;-71
2023/12/03 10:18:57;;;;;;;1999.90;999.90;;;-3.50;99.40;;;;;;5070741;28;20047;-72
2023/12/03 10:21:24;;;;;;;1999.90;999.90;;;-3.40;99.60;;;;;;5066681;28;20679;-72
2023/12/03 10:24:04;;;;;;;1999.90;999.90;;;-3.40;99.50;;;;;;5066536;28;20037;-71
2023/12/03 10:26:30;;;;;;;1999.90;999.90;;;-3.50;99.60;;;;;;5071602;28;20020;-71
2023/12/03 10:28:56;;;;;;;1999.90;999.90;;;-3.60;99.40;;;;;;5067879;28;20024;-72
2023/12/03 10:31:22;;;;;;;1999.90;999.90;;;-3.70;99.50;;;;;;5069569;28;20032;-72
2023/12/03 10:33:48;;;;;;;1999.90;999.90;;;-3.80;99.30;;;;;;5065391;28;20505;-72
2023/12/03 10:36:14;;;;;;;1999.90;999.90;;;-3.80;99.20;;;;;;5070740;28;20119;-72
2023/12/03 10:38:42;;;;;;;1999.90;999.90;;;-3.80;99.50;;;;;;5068177;28;20039;-72
2023/12/03 10:41:09;;;;;;;1999.90;999.90;;;-3.80;99.50;;;;;;5066238;28;20074;-72
2023/12/03 10:43:36;;;;;;;1999.90;999.90;;;-3.70;99.60;;;;;;5070554;28;20048;-72
2023/12/03 10:46:12;;;;;;;1999.90;999.90;;;-3.80;99.50;;;;;;5067542;28;20024;-72
2023/12/03 10:48:38;;;;;;;1999.90;999.90;;;-3.70;99.60;;;;;;5065051;28;20024;-73
2023/12/03 10:51:09;;;;;;;1999.90;999.90;;;-3.70;99.70;;;;;;5069646;28;20052;-72
2023/12/03 10:53:36;;;;;;;1999.90;999.90;;;-3.60;99.70;;;;;;5066927;28;20098;-73
2023/12/03 10:56:04;;;;;;;1999.90;999.90;;;-3.60;99.80;;;;;;5068909;28;20546;-73
2023/12/03 10:58:31;;;;;;;1999.90;999.90;;;-3.50;99.90;;;;;;5066768;28;20436;-72
2023/12/03 11:01:20;;;;;;;1999.90;999.90;;;-3.40;99.90;;;;;;5065018;28;20038;-72
2023/12/03 11:03:57;;;;;;;1999.90;999.90;;;-3.40;99.70;;;;;;5066861;28;20036;-72
2023/12/03 11:06:24;;;;;;;1999.90;999.90;;;-3.60;99.50;;;;;;5067215;28;20033;-73
2023/12/03 11:08:53;;;;;;;1999.90;999.90;;;-3.60;99.70;;;;;;5066880;28;20110;-72
2023/12/03 11:11:22;;;;;;;1999.90;999.90;;;-3.50;99.90;;;;;;5065112;28;20017;-73
2023/12/03 11:13:53;;;;;;;1999.90;999.90;;;-3.60;99.60;;;;;;5066529;28;20044;-72
2023/12/03 11:16:20;;;;;;;1999.90;999.90;;;-3.50;99.90;;;;;;5067001;28;20032;-73
2023/12/03 11:18:57;;;;;;;1999.90;999.90;;;-3.50;99.90;;;;;;5068309;28;20677;-72
2023/12/03 11:22:21;;;;;;;1999.90;999.90;;;-3.30;99.90;;;;;;5063347;28;20036;-72
2023/12/03 11:25:11;;;;;;;1999.90;999.90;;;-3.30;99.90;;;;;;4949427;28;20535;-73
2023/12/03 11:27:41;;;;;;;1999.90;999.90;;;-3.30;99.90;;;;;;5064409;28;20176;-72
2023/12/03 11:30:07;;;;;;;1999.90;999.90;;;-3.20;99.90;;;;;;5067414;28;20443;-72
2023/12/03 11:32:34;;;;;;;1999.90;999.90;;;-3.20;99.90;;;;;;5066629;28;20036;-72
2023/12/03 11:35:02;;;;;;;1999.90;999.90;;;-3.10;99.90;;;;;;5069561;28;20872;-72
2023/12/03 11:37:28;;;;;;;1999.90;999.90;;;-3.10;99.90;;;;;;5066697;28;20532;-71
2023/12/03 11:39:58;;;;;;;1999.90;999.90;;;-3.10;99.90;;;;;;5066200;28;20094;-72
2023/12/03 11:42:25;;;;;;;1999.90;999.90;;;-3.10;99.90;;;;;;5067121;28;20035;-72
2023/12/03 11:45:25;;;;;;;1999.90;999.90;;;-3.10;99.90;;;;;;5069987;28;20195;-72
2023/12/03 11:48:05;;;;;;;1999.90;999.90;;;-3.00;99.90;;;;;;5065227;28;20040;-72
2023/12/03 11:50:33;;;;;;;1999.90;999.90;;;-3.00;99.90;;;;;;5072425;28;20601;-72
2023/12/03 11:52:59;;;;;;;1999.90;999.90;;;-3.00;99.90;;;;;;5073738;28;20050;-72
2023/12/03 11:55:26;;;;;;;1999.90;999.90;;;-3.10;99.80;;;;;;5068793;28;20021;-72
2023/12/03 11:57:52;;;;;;;1999.90;999.90;;;-3.00;99.90;;;;;;5071306;28;20035;-73